Tiempo atmosférico en la estación meteorológica de Sigüenza, Guadalajara (1044 m.)



Fecha
DESCASC
Temp. máxima en grados centígrados (hora)
DESCASC
Temp. mínima en grados centígrados (hora)
DESCASC
Temp. media en grados centígrados
DESCASC
Racha de viento máxima en m/sg (hora)
DESCASC
Velocidad máxima media en intervalos de 10 minutos(hora)
DESCASC
Precipitaciones diarias en mm
DESCASC
Precipitaciones de 00:00 a 06:00 en mm
DESCASC
Precipitaciones de 06:00 a 12:00 en mm
DESCASC
Precipitaciones de 12:00 a 18:00 en mm
DESCASC
Precipitaciones de 18:00 a 24:00 en mm
DESCASC
19-09-2019 26.4 (16:20) 9.2 (07:40) 17.8 7.5 (15:10) 4.72 (14:40) 1.2 0 0 0 1.2
18-09-2019 23.6 (17:20) 10.1 (06:10) 16.9 6.11 (02:20) 2.22 (00:10) 0.4 0.2 0.2 0 0
17-09-2019 28.2 (16:40) 10.6 (00:00) 19.4 12.22 (21:10) 6.94 (21:10) 2.8 0 0 0 2.8
16-09-2019 22.9 (17:50) 14 (00:00) 18.4 5.83 (17:20) 2.78 (17:20) 2.6 2.6 0 0 0
15-09-2019 21.9 (14:40) 13.8 (00:00) 17.8 8.61 (14:40) 3.89 (14:40) 10.2 0 1.4 5.8 3
14-09-2019 22.1 (14:50) 13.1 (00:00) 17.6 8.89 (17:30) 4.17 (15:00) 2.8 0.4 0 2.4 0
13-09-2019 19.6 (13:20) 7.3 (00:00) 13.5 12.78 (13:50) 5.83 (13:30) 2 0 0 2 0
12-09-2019 24.6 (15:00) 8.1 (00:00) 16.4 11.39 (15:20) 4.44 (13:20) 0 0 0 0 0
11-09-2019 21.7 (17:30) 9.1 (00:00) 15.4 17.5 (10:40) 7.22 (10:40) 0 0 0 0 0
10-09-2019 17.7 (01:40) 9 (22:50) 13.4 13.61 (12:50) 5.56 (17:00) 2.8 0 0 0.4 2.4
09-09-2019 26.8 (15:30) 5.2 (08:00) 16 12.5 (15:00) 6.67 (15:00) 0 0 0 0 0
08-09-2019 26.8 (16:00) 7.7 (00:00) 17.2 5.83 (16:20) 2.78 (00:10) 0 0 0 0 0
07-09-2019 24.2 (15:30) 7.6 (00:00) 15.9 9.17 (18:20) 3.33 (18:30) 0 0 0 0 0
06-09-2019 21.9 (17:10) 7.3 (00:00) 14.6 9.72 (02:30) 4.17 (10:40) 0 0 0 0 0
05-09-2019 20.9 (16:20) 11 (00:00) 15.9 11.67 (14:20) 5 (14:50) 0 0 0 0 0
04-09-2019 29.8 (16:00) 7.1 (00:00) 18.4 9.72 (19:40) 4.17 (19:30) 0 0 0 0 0
03-09-2019 30.1 (15:00) 8.8 (00:00) 19.5 7.78 (17:00) 3.61 (13:40) 0 0 0 0 0
02-09-2019 25.3 (18:00) 12.5 (00:00) 18.9 8.33 (00:10) 3.33 (11:20) 0 0 0 0 0
01-09-2019 30.4 (13:30) 12.4 (00:00) 21.4 9.44 (15:00) 4.17 (15:20) 3.2 0 0 1.4 1.8
31-08-2019 31.7 (15:50) 9.7 (00:00) 20.7 7.5 (16:40) 3.89 (16:00) 0 0 0 0 0
30-08-2019 32.4 (14:50) 11.9 (00:00) 22.2 10 (15:00) 4.17 (19:20) 0 0 0 0 0
29-08-2019 30.7 (14:20) 10.9 (00:00) 20.8 7.78 (21:10) 3.89 (13:40) -- 0 -- 0 0
28-08-2019 28.8 (14:30) 9.4 (00:00) 19.1 6.67 (15:40) 3.06 (14:50) 0 0 0 0 0
27-08-2019 25.2 (16:20) 12.5 (00:00) 18.9 5.28 (16:20) 2.78 (16:40) 2 2 0 0 0
26-08-2019 27.8 (15:50) 11.3 (00:00) 19.5 11.11 (23:00) 4.72 (15:20) 3.8 0 0 0 3.8
25-08-2019 -- (--) -- (--) -- -- (--) -- (--) -- -- 0 0 0
24-08-2019 31.7 (16:20) 8.1 (00:00) 19.9 6.67 (18:50) 3.61 (11:30) 0 0 0 0 0
23-08-2019 30.3 (16:10) 8 (00:00) 19.1 7.22 (12:10) 3.89 (11:10) 0 0 0 0 0
22-08-2019 28.5 (15:10) 7.8 (00:00) 18.2 6.67 (17:10) 2.78 (17:30) 0 0 0 0 0
21-08-2019 26.8 (16:30) 13.5 (00:00) 20.1 10.28 (19:20) 3.33 (16:00) 0.4 0 0 0.2 0.2

Gráficas

Temp. máximas Temp. mínimas Temp. medias Precipitaciones Rachas de viento máximas Velocidades máximas media en intervalos de 10 minutos

Datos horarios

Fecha y hora oficial Temperatura (ºC) Velocidad del viento (km/h) Dirección del viento Racha (km/h) Dirección de racha Precipitación (mm) Presión (hPa) Tendencia (hPa) Humedad (%)
2019-09-19 23:00:00 15.7 4 Nordeste 13 Norte 0 905.9 1.3 83
2019-09-19 22:00:00 17.1 6 Nordeste 14 Norte 0 905.7 1.2 77
2019-09-19 21:00:00 16.3 4 Norte 9 Nordeste 0 905 0.4 84
2019-09-19 20:00:00 18.2 3 Norte 7 Este 0 904.6 0.4 78
2019-09-19 19:00:00 19.7 3 Norte 17 Norte 1.2 904.5 0.1 74
2019-09-19 18:00:00 22.9 8 Noroeste 20 Noroeste 0 904.6 -0.2 51
2019-09-19 17:00:00 25.5 9 Sudoeste 24 Sur 0 904.2 -1.3 36
2019-09-19 16:00:00 25.9 9 Sudoeste 27 Sur 0 904.4 -1.4 35
2019-09-19 15:00:00 25.3 10 Sur 25 Sur 0 904.8 -1.3 37
2019-09-19 14:00:00 25.1 11 Sur 25 Sudoeste 0 905.5 -0.6 38
2019-09-19 13:00:00 24 8 Sudoeste 23 Sudoeste 0 905.8 -0.4 43
2019-09-19 12:00:00 22 7 Sudoeste 19 Sudoeste 0 906.1 0.1 54
2019-09-19 11:00:00 16.9 0 Calma 7 Nordeste 0 906.1 0.3 75
2019-09-19 10:00:00 13.5 3 Nordeste 8 Nordeste 0 906.2 0.6 90
2019-09-19 09:00:00 10.3 4 Nordeste 7 Norte 0 906 0.6 95
2019-09-19 08:00:00 9.5 5 Norte 9 Norte 0 905.8 0.2 95
2019-09-19 07:00:00 9.6 3 Norte 5 Nordeste 0 905.6 0 94
2019-09-19 06:00:00 10.1 2 Norte 7 Norte 0 905.4 -0.5 93
2019-09-19 05:00:00 10.5 5 Nordeste 8 Norte 0 905.6 -0.4 93
2019-09-19 04:00:00 11.2 3 Nordeste 6 Nordeste 0 905.6 -0.7 93
2019-09-19 03:00:00 11.8 3 Norte 9 Norte 0 905.9 -0.5 93
2019-09-19 02:00:00 12.3 3 Nordeste 9 Noroeste 0 906 -0.3 92
2019-09-19 01:00:00 13.1 5 Nordeste 9 Norte 0 906.3 0.5 91
2019-09-19 00:00:00 14.1 5 Norte 10 Norte 0 906.4 0.9 88
2019-09-18 23:00:00 15.9 4 Nordeste 9 Norte 0 906.3 1.4 82
2019-09-18 22:00:00 18 6 Nordeste 18 Nordeste 0 905.8 1.3 70
2019-09-18 21:00:00 18.5 4 Este 11 Este 0 905.5 1.1 67
2019-09-18 20:00:00 19.7 2 Este 8 Noroeste 0 904.9 0.3 61
2019-09-18 19:00:00 22.4 4 Norte 13 Noroeste 0 904.5 -0.7 46
2019-09-18 18:00:00 23.5 5 Sudoeste 14 Norte 0 904.4 -1.1 40
2019-09-18 17:00:00 23.3 3 Sudeste 11 Sudoeste 0 904.6 -1.3 43
2019-09-18 16:00:00 22.4 4 Oeste 13 Sudoeste 0 905.2 -0.9 46
2019-09-18 15:00:00 21.5 5 Sudoeste 12 Sudoeste 0 905.5 -0.6 52
2019-09-18 14:00:00 18.5 3 Norte 6 Nordeste 0 905.9 -0.1 69
2019-09-18 13:00:00 16.7 0 Calma 6 Nordeste 0 906.1 0.3 79
2019-09-18 12:00:00 15.4 0 Calma 6 Norte 0 906.1 0.9 84
2019-09-18 11:00:00 13.9 2 Este 6 Nordeste 0.2 906 1.2 91
2019-09-18 10:00:00 12.8 3 Nordeste 5 Nordeste 0 905.8 1.3 94
2019-09-18 09:00:00 11.9 2 Nordeste 10 Norte 0 905.2 1 95
2019-09-18 08:00:00 11 4 Nordeste 8 Norte 0 904.8 0.4 95
2019-09-18 07:00:00 10.5 4 Norte 8 Nordeste 0 904.5 0.1 95
2019-09-18 06:00:00 10.3 3 Norte 6 Norte 0 904.2 -1 94
2019-09-18 05:00:00 11.2 0 Calma 6 Sudoeste 0 904.4 -1.4 93
2019-09-18 04:00:00 12.3 2 Este 11 Nordeste 0 904.4 -1.6 92
2019-09-18 03:00:00 13.5 6 Nordeste 22 Nordeste 0 905.2 -1.1 90
2019-09-18 02:00:00 13.5 3 Nordeste 10 Este 0 905.8 -0.3 91
2019-09-18 01:00:00 14.7 2 Sudeste 13 Nordeste 0.2 906 0 88
2019-09-18 00:00:00 15.2 3 Sudoeste 11 Este 0.6 906.3 1.7 89
2019-09-17 23:00:00 15.3 4 Nordeste 17 Norte 0.6 906.1 2.4 87
2019-09-17 22:00:00 16 6 Nordeste 44 Sur 1.6 906 2.4 81
2019-09-17 21:00:00 21.1 21 Sur 40 Sur 0 904.6 1.2 55
2019-09-15 18:00:00 15.4 3 Sudeste 20 Nordeste 4.2 907.8 0 92
2019-09-15 17:00:00 16.4 7 Nordeste 23 Nordeste 1.6 907.8 -0.4 84
2019-09-15 16:00:00 18 11 Nordeste 30 Nordeste 0 907.3 -1.6 67
2019-09-15 15:00:00 19.9 13 Nordeste 31 Nordeste 0 907.8 -2.3 64
2019-09-15 14:00:00 20.7 9 Este 25 Nordeste 0 908.2 -1.2 70
2019-09-15 13:00:00 17.5 9 Nordeste 21 Nordeste 0 908.9 -1.2 81
2019-09-15 12:00:00 14.5 6 Nordeste 20 Nordeste 0.4 910.1 1 82
2019-09-15 11:00:00 15.3 10 Nordeste 22 Nordeste 1 909.4 0.3 70
2019-09-15 10:00:00 15.8 10 Norte 21 Norte 0 910.1 1.5 60
2019-09-15 09:00:00 16 8 Norte 19 Noroeste 0 909.1 0.4 58
2019-09-15 08:00:00 16.1 11 Norte 19 Norte 0 909.1 -0.1 57
2019-09-15 07:00:00 15.7 8 Nordeste 19 Norte 0 908.6 -0.9 60
2019-09-15 06:00:00 14 10 Nordeste 17 Norte 0 908.7 -1 68
2019-09-15 05:00:00 14.2 5 Nordeste 16 Nordeste 0 909.2 -0.7 68
2019-09-15 04:00:00 14.6 9 Nordeste 20 Norte 0 909.5 -0.7 67
2019-09-15 03:00:00 14.8 9 Nordeste 16 Nordeste 0 909.7 -0.6 65
2019-09-15 02:00:00 14.4 5 Este 16 Nordeste 0 909.9 -0.5 71
2019-09-15 01:00:00 15.6 6 Nordeste 19 Norte 0 910.2 0.2 69
2019-09-15 00:00:00 15.9 10 Nordeste 19 Norte 0 910.3 0.3 71
2019-09-14 23:00:00 15.7 7 Nordeste 16 Nordeste 0 910.4 0.3 75
2019-09-14 22:00:00 15.5 8 Nordeste 16 Nordeste 0 910 -0.8 74
2019-09-14 21:00:00 14.7 3 Nordeste 10 Nordeste 0 910 -1 89
2019-09-14 20:00:00 15.4 3 Este 15 Sudoeste 0 910.1 -0.2 89
2019-09-14 19:00:00 15.6 7 Sudoeste 26 Oeste 0 910.8 1.4 88
2019-09-14 18:00:00 15.6 7 Sudoeste 32 Sudoeste 2.4 911 -0.1 87
2019-09-14 17:00:00 21.4 4 Sudeste 22 Este 0 910.3 -0.8 50
2019-09-14 16:00:00 21.2 9 Nordeste 28 Nordeste 0 909.4 -2.1 55
2019-09-14 15:00:00 21.2 15 Sudoeste 27 Sur 0 911.1 -0.2 54
2019-09-14 14:00:00 21.3 9 Nordeste 29 Nordeste 0 911.1 -0.7 52
2019-09-14 13:00:00 18.8 10 Nordeste 27 Nordeste 0 911.5 -0.5 61
2019-09-14 12:00:00 17.2 13 Nordeste 27 Nordeste 0 911.3 -0.5 70
2019-09-14 11:00:00 16.5 13 Nordeste 31 Nordeste 0 911.8 0 71
2019-09-14 10:00:00 14.3 12 Nordeste 25 Nordeste 0 912 0.4 83
2019-09-14 09:00:00 13.7 12 Nordeste 25 Nordeste 0 911.8 0.1 86
2019-09-14 08:00:00 13.1 11 Nordeste 23 Norte 0 911.8 0 88
2019-09-14 07:00:00 13.4 12 Nordeste 21 Nordeste 0 911.6 -0.7 90
2019-09-14 06:00:00 13.2 10 Nordeste 20 Nordeste 0 911.7 -0.9 90
2019-09-14 05:00:00 13.7 9 Nordeste 18 Norte 0 911.8 -1.2 88
2019-09-14 04:00:00 14 6 Nordeste 17 Nordeste 0 912.3 -1.1 86
2019-09-14 03:00:00 14 6 Nordeste 16 Norte 0 912.6 -1 88
2019-09-14 02:00:00 14.1 7 Nordeste 17 Nordeste 0.2 913 -0.2 89
2019-09-14 01:00:00 14.6 8 Nordeste 17 Nordeste 0.2 913.4 0.4 85
2019-09-14 00:00:00 14.9 8 Nordeste 18 Nordeste 0 913.6 1.1 81
2019-09-13 23:00:00 14.7 8 Nordeste 19 Nordeste 0 913.2 0.8 83
2019-09-13 22:00:00 14.9 9 Nordeste 19 Nordeste 0 913 0.3 82
2019-09-13 21:00:00 14.6 6 Nordeste 17 Nordeste 0 912.5 0 83
2019-09-13 20:00:00 15.7 7 Nordeste 27 Nordeste 0 912.4 -0.5 77
2019-09-13 19:00:00 16.9 11 Nordeste 35 Nordeste 0 912.7 -0.9 71
2019-09-13 18:00:00 16.7 11 Nordeste 33 Nordeste 0 912.5 -1.3 73
2019-09-13 17:00:00 15.6 10 Nordeste 27 Nordeste 0.2 912.9 0 80
2019-09-13 16:00:00 14.2 10 Nordeste 29 Nordeste 1.4 913.6 0.4 88
2019-09-13 15:00:00 15.2 11 Nordeste 41 Nordeste 0.4 913.8 -0.2 81
2019-09-13 14:00:00 18.7 16 Nordeste 46 Nordeste 0 912.9 -1.1 47
2019-09-13 13:00:00 19 16 Nordeste 38 Nordeste 0 913.2 -0.3 47
2019-09-13 12:00:00 18.5 16 Nordeste 35 Nordeste 0 914 0.4 48
2019-09-13 11:00:00 18.4 14 Nordeste 34 Nordeste 0 914 0.4 50
2019-09-13 10:00:00 17.2 12 Nordeste 29 Nordeste 0 913.5 0.4 55
2019-09-13 09:00:00 14.9 10 Nordeste 22 Norte 0 913.6 -0.4 64
2019-09-13 08:00:00 13.2 10 Nordeste 20 Nordeste 0 913.6 -0.9 70
2019-09-13 07:00:00 7.5 2 Norte 6 Nordeste 0 913.1 -1.4 87
2019-09-13 06:00:00 8 0 Calma 6 Norte 0 914 -0.7 83
2019-09-13 05:00:00 9.1 5 Norte 7 Norte 0 914.5 -0.6 82
2019-09-13 04:00:00 9.3 3 Norte 5 Norte 0 914.5 -0.3 82
2019-09-13 03:00:00 9.5 2 Sur 5 Noroeste 0 914.7 -0.5 79
2019-09-13 02:00:00 10.7 2 Nordeste 8 Nordeste 0 915.1 0.2 76
2019-09-13 01:00:00 11.5 3 Norte 6 Norte 0 914.8 0.3 74
2019-09-13 00:00:00 13.4 0 Calma 10 Nordeste 0 915.2 1 63
2019-09-12 23:00:00 16 5 Nordeste 12 Este 0 914.9 0.9 59
2019-09-12 22:00:00 17.4 4 Este 14 Este 0 914.5 0.5 54
2019-09-12 21:00:00 19.9 6 Nordeste 26 Nordeste 0 914.2 0.1 47
2019-09-12 20:00:00 21.6 11 Nordeste 28 Nordeste 0 914 0 42
2019-09-12 19:00:00 23.4 11 Nordeste 28 Nordeste 0 914 0.1 38
2019-09-12 18:00:00 24 10 Nordeste 33 Nordeste 0 914.1 0 36
2019-09-12 17:00:00 24 12 Nordeste 34 Norte 0 914 -0.8 37
2019-09-12 16:00:00 23.8 13 Nordeste 41 Norte 0 913.9 -1.3 38
2019-09-12 15:00:00 24.6 11 Este 34 Nordeste 0 914.1 -1.7 36
2019-09-12 14:00:00 23.8 13 Nordeste 40 Nordeste 0 914.8 -1.1 37
2019-09-12 13:00:00 22.3 13 Nordeste 36 Nordeste 0 915.2 0.2 41
2019-09-12 12:00:00 19.9 10 Nordeste 31 Nordeste 0 915.8 1.3 47
2019-09-12 11:00:00 17.6 13 Nordeste 25 Nordeste 0 915.9 2 56
2019-09-12 10:00:00 14.4 11 Nordeste 19 Nordeste 0 915 1.3 64
2019-09-12 09:00:00 11.3 6 Nordeste 10 Nordeste 0 914.5 0.8 74
2019-09-12 08:00:00 8.5 2 Este 7 Norte 0 913.9 0.3 83
2019-09-12 07:00:00 9.5 2 Noroeste 15 Nordeste 0 913.7 -0.4 79
2019-09-12 06:00:00 9.3 3 Este 13 Este 0 913.7 0 79
2019-09-12 05:00:00 8.4 2 Nordeste 9 Norte 0 913.6 0.1 83
2019-09-12 04:00:00 9.2 2 Nordeste 6 Este 0 914.1 0.9 80
2019-09-12 03:00:00 10.8 3 Este 13 Nordeste 0 913.7 0.5 73
2019-09-12 02:00:00 11.8 7 Nordeste 19 Nordeste 0 913.5 0.4 71
2019-09-12 01:00:00 11.7 4 Nordeste 14 Nordeste 0 913.2 0.6 70
2019-09-12 00:00:00 12.6 3 Nordeste 21 Nordeste 0 913.2 1.5 66
2019-09-11 23:00:00 13.7 3 Nordeste 15 Nordeste 0 913.1 2.4 64
2019-09-11 22:00:00 15.1 10 Nordeste 21 Nordeste 0 912.6 2.5 59
2019-09-11 21:00:00 17 8 Nordeste 27 Nordeste 0 911.7 2 48
2019-09-11 20:00:00 18.6 11 Nordeste 36 Nordeste 0 910.7 1.3 41
2019-09-11 19:00:00 19.8 14 Nordeste 37 Nordeste 0 910.1 1 37
2019-09-11 18:00:00 20.4 15 Nordeste 45 Nordeste 0 909.7 0.7 36
2019-09-11 17:00:00 21.4 15 Nordeste 41 Norte 0 909.4 -0.1 33
2019-09-11 16:00:00 21.2 14 Nordeste 44 Norte 0 909.1 -0.7 33
2019-09-11 15:00:00 20.4 15 Nordeste 51 Nordeste 0 909 0 35
2019-09-11 14:00:00 19.6 18 Nordeste 45 Norte 0 909.5 0.8 39
2019-09-11 13:00:00 17.1 18 Norte 48 Nordeste 0 909.8 1.6 45
2019-09-11 12:00:00 16.6 24 Norte 59 Norte 0 909 1.5 47
2019-09-11 11:00:00 14.8 23 Norte 63 Norte 0 908.7 1.6 55
2019-09-11 10:00:00 13.7 20 Norte 49 Norte 0 908.2 1.5 60
2019-09-11 09:00:00 12.4 16 Norte 42 Norte 0 907.5 0.9 67
2019-09-11 08:00:00 11.1 10 Norte 28 Norte 0 907.1 1.2 73
2019-09-11 07:00:00 10.4 7 Norte 24 Norte 0 906.7 0.8 76
2019-09-11 06:00:00 10.1 9 Nordeste 22 Nordeste 0 906.6 0.2 77
2019-09-11 05:00:00 10 6 Nordeste 21 Nordeste 0 905.9 0.1 76
2019-09-11 04:00:00 9.7 4 Nordeste 24 Nordeste 0 905.9 0.5 75
2019-09-11 03:00:00 9.4 4 Norte 16 Norte 0 906.4 0.5 75
2019-09-11 02:00:00 9.5 7 Nordeste 20 Norte 0 905.8 0.5 73
2019-09-11 01:00:00 9.8 8 Nordeste 31 Norte 0 905.4 0.6 70
2019-09-11 00:00:00 9.8 12 Norte 30 Norte 0 905.9 1.8 69
2019-09-10 23:00:00 9.3 8 Norte 18 Norte 0 905.3 1.7 77
2019-09-10 22:00:00 9.4 8 Noroeste 25 Noroeste 0 904.8 1.6 79
2019-09-10 21:00:00 9.7 6 Norte 27 Nordeste 0 904.1 1 78
2019-09-10 20:00:00 10.1 13 Norte 29 Norte 1.4 903.6 0.9 81
2019-09-10 19:00:00 10.7 6 Norte 22 Norte 1 903.2 0.6 83
2019-09-10 18:00:00 11.3 10 Norte 39 Noroeste 0.4 903.1 0.3 75
2019-09-10 17:00:00 14.2 20 Noroeste 45 Norte 0 902.7 -0.6 50
2019-09-10 16:00:00 14.7 16 Noroeste 47 Noroeste 0 902.6 -0.3 48
2019-09-10 15:00:00 14.8 11 Noroeste 40 Noroeste 0 902.8 0 45
2019-09-10 14:00:00 14.1 14 Noroeste 48 Norte 0 903.3 0.2 45
2019-09-10 13:00:00 14.8 18 Noroeste 49 Norte 0 902.9 0.3 43
2019-09-10 12:00:00 14.2 13 Noroeste 37 Norte 0 902.8 0.4 45
2019-09-10 11:00:00 12.1 15 Norte 36 Nordeste 0 903.1 1.4 49
2019-09-10 10:00:00 11.1 12 Norte 31 Noroeste 0 902.6 1.3 54
2019-09-10 09:00:00 10 12 Norte 29 Norte 0 902.4 1.7 59
2019-09-10 08:00:00 9.9 8 Noroeste 21 Noroeste 0 901.7 1.1 59
2019-09-10 07:00:00 11 9 Noroeste 30 Noroeste 0 901.3 0.5 65
2019-09-10 06:00:00 11.6 9 Noroeste 29 Noroeste 0 900.7 -0.1 66
2019-09-10 05:00:00 12.3 6 Noroeste 23 Noroeste 0 900.6 -0.5 68
2019-09-10 04:00:00 14.1 5 Noroeste 24 Noroeste 0 900.8 -0.2 62
2019-09-10 03:00:00 15.9 6 Sudoeste 23 Noroeste 0 900.8 -0.5 50
2019-09-10 02:00:00 17.6 5 Oeste 23 Oeste 0 901.1 -0.5 39
2019-09-10 01:00:00 13.1 3 Noroeste 11 Oeste 0 901 -0.2 47
2019-09-10 00:00:00 12.3 2 Oeste 9 Oeste 0 901.3 0.3 50
2019-09-09 23:00:00 14.5 0 Calma 6 Este 0 901.6 0.7 45
2019-09-09 22:00:00 17.3 2 Norte 6 Este 0 901.2 0.7 37
2019-09-09 21:00:00 21.2 0 Calma 17 Noroeste 0 901 0.3 28
2019-09-09 20:00:00 23.6 6 Oeste 29 Sudoeste 0 900.9 -0.2 22
2019-09-09 19:00:00 24.5 11 Sur 32 Sur 0 900.5 -1.3 17
2019-09-09 18:00:00 25.2 13 Sudoeste 35 Sudoeste 0 900.7 -1.8 21
2019-09-09 17:00:00 25.6 19 Sur 40 Sur 0 901.1 -2.2 23
2019-09-09 16:00:00 26.4 19 Sudoeste 43 Sur 0 901.8 -2 22
2019-09-09 15:00:00 26.2 24 Sur 45 Sur 0 902.5 -2 22
2019-09-09 14:00:00 26.5 21 Sudoeste 38 Sur 0 903.3 -1.6 19
2019-09-09 13:00:00 24.7 18 Sudoeste 31 Sudoeste 0 903.8 -1.3 25
2019-09-09 12:00:00 22.8 10 Sudoeste 26 Sudoeste 0 904.5 -0.7 31
2019-09-09 11:00:00 19.3 6 Sudoeste 13 Sudoeste 0 904.9 -0.1 51
2019-09-09 10:00:00 12.7 2 Nordeste 7 Nordeste 0 905.1 0.2 73
2019-09-09 09:00:00 7.8 4 Nordeste 6 Nordeste 0 905.2 0.2 86
2019-09-09 08:00:00 5.2 5 Nordeste 9 Norte 0 905 -0.4 89
2019-09-09 07:00:00 6.3 4 Norte 7 Este 0 904.9 -0.5 88
2019-09-09 06:00:00 6.8 3 Nordeste 7 Norte 0 905 -0.7 86
2019-09-09 05:00:00 7.5 4 Norte 9 Nordeste 0 905.4 -0.6 83
2019-09-09 04:00:00 8.2 5 Norte 8 Nordeste 0 905.4 -0.6 82
2019-09-09 03:00:00 9.4 0 Calma 5 Norte 0 905.7 -0.5 75
2019-09-09 02:00:00 11 3 Nordeste 8 Norte 0 906 -0.2 71
2019-09-09 01:00:00 12.4 5 Nordeste 11 Nordeste 0 906 0.2 69
2019-09-09 00:00:00 14.2 4 Este 12 Norte 0 906.2 1.3 62
2019-09-08 23:00:00 16.7 7 Nordeste 17 Nordeste 0 906.2 1.9 55
2019-09-08 22:00:00 18.3 9 Nordeste 16 Nordeste 0 905.8 1.9 50
2019-09-08 21:00:00 19.1 3 Este 8 Norte 0 904.9 1.1 41
2019-09-08 20:00:00 22.8 5 Norte 14 Noroeste 0 904.3 0.1 29
2019-09-08 19:00:00 25 4 Nordeste 21 Noroeste 0 903.9 -0.7 25
2019-09-08 18:00:00 25.5 7 Norte 17 Norte 0 903.8 -1.2 27
2019-09-08 17:00:00 25.2 5 Nordeste 21 Norte 0 904.2 -1.1 28
2019-09-08 16:00:00 25.8 8 Norte 19 Noroeste 0 904.6 -1.1 24
2019-09-08 15:00:00 25.8 5 Oeste 20 Sudoeste 0 905 -1.5 29
2019-09-08 14:00:00 24.5 7 Noroeste 21 Sur 0 905.3 -1.6 33
2019-09-08 13:00:00 23 6 Sudoeste 17 Sur 0 905.7 -1.3 42
2019-09-08 12:00:00 20.2 3 Este 13 Norte 0 906.5 -0.5 53
2019-09-08 11:00:00 17.5 4 Norte 14 Nordeste 0 906.9 -0.2 52
2019-09-08 10:00:00 14.5 8 Norte 17 Norte 0 907 0 58
2019-09-08 09:00:00 11.7 4 Nordeste 10 Nordeste 0 907 0.4 71
2019-09-08 08:00:00 9.5 5 Nordeste 10 Nordeste 0 907.1 0.1 78
2019-09-08 07:00:00 7.7 7 Nordeste 10 Nordeste 0 907 -0.3 83
2019-09-08 06:00:00 8.3 5 Nordeste 10 Nordeste 0 906.6 -1 81
2019-09-08 05:00:00 8.9 5 Nordeste 9 Nordeste 0 907 -0.9 78
2019-09-08 04:00:00 8.8 4 Norte 8 Nordeste 0 907.3 -0.4 78
2019-09-08 03:00:00 10.2 3 Nordeste 11 Este 0 907.6 -0.1 73
2019-09-08 02:00:00 11.6 4 Este 18 Nordeste 0 907.9 0.4 65
2019-09-08 01:00:00 13.1 7 Nordeste 18 Nordeste 0 907.7 0.7 63
2019-09-08 00:00:00 13.9 8 Nordeste 17 Nordeste 0 907.7 1.5 53
2019-09-07 23:00:00 15 8 Nordeste 18 Nordeste 0 907.5 1.7 43
2019-09-07 22:00:00 16.4 6 Nordeste 20 Nordeste 0 907 1.3 36
2019-09-07 21:00:00 18.7 6 Nordeste 19 Nordeste 0 906.2 0.5 29
2019-09-07 20:00:00 20.6 10 Nordeste 23 Nordeste 0 905.8 -0.1 23
2019-09-07 19:00:00 22.5 11 Nordeste 33 Noroeste 0 905.7 -0.5 22
2019-09-07 18:00:00 23.1 10 Nordeste 24 Norte 0 905.7 -1.1 27
2019-09-07 17:00:00 23 8 Nordeste 23 Noroeste 0 905.9 -1.5 32
2019-09-07 16:00:00 23.5 7 Norte 21 Norte 0 906.2 -1.7 32
2019-09-07 15:00:00 23.2 5 Nordeste 18 Noroeste 0 906.8 -1.6 32
2019-09-07 14:00:00 22.3 5 Nordeste 16 Nordeste 0 907.4 -1.4 37
2019-09-07 13:00:00 19.9 5 Norte 17 Norte 0 907.9 -1.1 41
2019-09-07 12:00:00 17.4 7 Nordeste 19 Nordeste 0 908.4 -0.6 43
2019-09-07 11:00:00 14.6 7 Este 17 Nordeste 0 908.8 0.1 51
2019-09-07 10:00:00 12 8 Nordeste 20 Nordeste 0 909 0.5 60
2019-09-07 09:00:00 10.1 9 Nordeste 17 Nordeste 0 909 0.4 69
2019-09-07 08:00:00 8.9 6 Nordeste 15 Nordeste 0 908.7 0 72
2019-09-07 07:00:00 8.7 6 Nordeste 13 Nordeste 0 908.5 -0.4 73
2019-09-07 06:00:00 8.8 6 Nordeste 16 Nordeste 0 908.6 -0.5 71
2019-09-07 05:00:00 8.4 6 Nordeste 15 Nordeste 0 908.7 -0.4 70
2019-09-07 04:00:00 8.3 7 Nordeste 17 Nordeste 0 908.9 0.1 68
2019-09-07 03:00:00 8.2 6 Nordeste 17 Nordeste 0 909.1 0.4 67
2019-09-07 02:00:00 9.6 9 Nordeste 21 Nordeste 0 909.1 0.5 61
2019-09-07 01:00:00 11.1 9 Nordeste 27 Nordeste 0 908.8 0.5 55
2019-09-07 00:00:00 11.7 8 Nordeste 22 Nordeste 0 908.7 1.2 55
2019-09-06 23:00:00 12.9 11 Nordeste 19 Nordeste 0 908.6 1.7 49
2019-09-06 22:00:00 14.7 12 Nordeste 22 Nordeste 0 908.3 1.5 43
2019-09-06 21:00:00 16.4 8 Nordeste 26 Nordeste 0 907.5 0.7 36
2019-09-06 20:00:00 18.8 12 Nordeste 26 Nordeste 0 906.9 -0.1 29
2019-09-06 19:00:00 20.6 10 Nordeste 29 Este 0 906.8 -0.5 26
2019-09-06 18:00:00 21.5 11 Nordeste 31 Nordeste 0 906.8 -1.2 24
2019-09-06 17:00:00 21.6 9 Nordeste 27 Norte 0 907 -1.3 25
2019-09-06 16:00:00 21.4 8 Nordeste 26 Este 0 907.3 -1.4 26
2019-09-06 15:00:00 20.7 7 Nordeste 24 Nordeste 0 908 -1.1 29
2019-09-06 14:00:00 19.6 8 Norte 24 Nordeste 0 908.3 -1 32
2019-09-06 13:00:00 17.9 9 Nordeste 26 Nordeste 0 908.7 -0.5 41
2019-09-06 12:00:00 16.2 9 Nordeste 31 Nordeste 0 909.1 0.2 47
2019-09-06 11:00:00 13.8 12 Nordeste 29 Nordeste 0 909.3 0.2 56
2019-09-06 10:00:00 12 11 Nordeste 35 Nordeste 0 909.2 0.3 60
2019-09-06 09:00:00 10 11 Nordeste 27 Nordeste 0 908.9 0.2 67
2019-09-06 08:00:00 7.8 6 Nordeste 13 Nordeste 0 909.1 0.4 76
2019-09-06 07:00:00 7.9 6 Nordeste 19 Nordeste 0 908.9 0.3 76
2019-09-06 06:00:00 8.3 5 Nordeste 17 Nordeste 0 908.7 0 76
2019-09-06 05:00:00 8.4 4 Nordeste 17 Nordeste 0 908.7 -0.4 74
2019-09-06 04:00:00 9.1 6 Nordeste 22 Nordeste 0 908.6 -0.5 71
2019-09-06 03:00:00 8.7 6 Nordeste 35 Nordeste 0 908.7 -0.7 70
2019-09-06 02:00:00 9.8 10 Nordeste 28 Nordeste 0 909.1 -0.6 65
2019-09-06 01:00:00 10.6 9 Nordeste 27 Nordeste 0 909.1 -0.5 62
2019-09-06 00:00:00 11.2 10 Nordeste 25 Nordeste 0 909.4 0.5 63
2019-09-05 23:00:00 11.9 9 Nordeste 28 Nordeste 0 909.7 1.4 61
2019-09-05 22:00:00 13.3 12 Nordeste 30 Norte 0 909.6 1.4 56
2019-09-05 21:00:00 14.9 11 Nordeste 35 Nordeste 0 908.9 0.7 52
2019-09-05 20:00:00 17.4 13 Nordeste 34 Nordeste 0 908.3 0.1 39
2019-09-05 19:00:00 18.9 15 Nordeste 33 Nordeste 0 908.2 -0.6 32
2019-09-05 18:00:00 19.8 13 Nordeste 35 Nordeste 0 908.2 -0.8 28
2019-09-05 17:00:00 20.2 14 Nordeste 36 Norte 0 908.2 -1.1 29
2019-09-05 16:00:00 20.3 13 Norte 39 Norte 0 908.8 -0.6 27
2019-09-05 15:00:00 20.2 14 Norte 42 Nordeste 0 909 -0.7 30
2019-09-05 14:00:00 20.3 15 Norte 37 Norte 0 909.3 -0.6 31
2019-09-05 13:00:00 19 15 Nordeste 40 Nordeste 0 909.4 -0.1 31
2019-09-05 12:00:00 17.9 14 Nordeste 40 Norte 0 909.7 0.3 43
2019-09-05 11:00:00 15.7 17 Nordeste 42 Nordeste 0 909.9 0.9 52
2019-09-05 10:00:00 15 18 Nordeste 41 Nordeste 0 909.5 0.9 62
2019-09-05 09:00:00 13.7 12 Nordeste 36 Nordeste 0 909.4 1.3 72
2019-09-05 08:00:00 12.6 12 Nordeste 35 Nordeste 0 909 1 76
2019-09-05 07:00:00 12.1 9 Nordeste 28 Nordeste 0 908.6 0.6 69
2019-09-05 06:00:00 11.6 9 Nordeste 23 Nordeste 0 908.1 0.1 66
2019-09-05 05:00:00 12.1 8 Nordeste 31 Nordeste 0 908 -0.1 65
2019-09-05 04:00:00 12.7 11 Nordeste 36 Nordeste 0 908 -0.1 67
2019-09-05 03:00:00 13.3 9 Nordeste 24 Nordeste 0 908 -0.1 70
2019-09-05 02:00:00 14 6 Nordeste 20 Nordeste 0 908.1 0.1 71
2019-09-05 01:00:00 14.3 8 Nordeste 19 Nordeste 0 908.1 0.5 70
2019-09-05 00:00:00 15.8 7 Nordeste 27 Nordeste 0 908.1 1.3 63
2019-09-04 23:00:00 17.3 11 Nordeste 35 Nordeste 0 908 1.9 58
2019-09-04 22:00:00 19.2 12 Nordeste 30 Norte 0 907.6 2.1 50
2019-09-04 21:00:00 21.6 9 Nordeste 26 Nordeste 0 906.8 1 36
2019-09-04 20:00:00 24.9 11 Nordeste 35 Nordeste 0 906.1 0 25
2019-09-04 19:00:00 28.4 9 Norte 19 Norte 0 905.5 -1 13
2019-09-04 18:00:00 28.8 8 Norte 19 Noroeste 0 905.8 -1.1 13
2019-09-04 17:00:00 29.3 6 Norte 27 Noroeste 0 906.1 -1.2 12
2019-09-04 16:00:00 29.8 7 Norte 30 Norte 0 906.5 -1.2 12
2019-09-04 15:00:00 28.8 10 Norte 26 Noroeste 0 906.9 -1.3 14
2019-09-04 14:00:00 28.2 9 Norte 26 Norte 0 907.3 -1.1 16
2019-09-04 13:00:00 27.5 8 Norte 26 Norte 0 907.7 -0.8 14
2019-09-04 12:00:00 25.9 4 Oeste 19 Sudoeste 0 908.2 -0.5 20
2019-09-04 11:00:00 21.5 8 Sur 13 Sudoeste 0 908.4 -- 53
2019-09-04 10:00:00 14.9 3 Nordeste 8 Nordeste 0 908.5 -- 51
2019-09-04 09:00:00 10.3 5 Nordeste 10 Nordeste 0 908.7 -- 70
2019-09-04 08:00:00 7.2 4 Nordeste 6 Nordeste 0 -- -- 83
2019-09-04 07:00:00 7.9 0 Calma 7 Nordeste 0 -- -- 79
2019-09-04 06:00:00 8.8 2 Nordeste 8 Nordeste 0 -- -- 77
2019-09-04 05:00:00 10 4 Norte 10 Norte 0 -- -- 74
2019-09-04 04:00:00 11.2 0 Calma 13 Norte 0 -- -- 69
2019-09-04 03:00:00 11.9 6 Norte 11 Nordeste 0 -- -- 68
2019-09-04 02:00:00 12.7 6 Norte 10 Nordeste 0 -- -- 65
2019-09-04 01:00:00 13.4 6 Nordeste 11 Norte 0 -- -- 62
2019-09-04 00:00:00 15.4 6 Nordeste 10 Nordeste 0 -- -- 54
2019-09-03 23:00:00 16.6 6 Nordeste 10 Norte 0 -- -- 46
2019-09-03 22:00:00 18.3 3 Nordeste 8 Norte 0 -- -- 35
2019-09-03 21:00:00 22.5 2 Nordeste 15 Noroeste 0 -- -- 27
2019-09-03 20:00:00 26.3 7 Noroeste 23 Norte 0 -- -- 19
2019-09-03 19:00:00 28 9 Norte 23 Norte 0 -- -- 20
2019-09-03 18:00:00 28.6 11 Norte 27 Noroeste 0 -- -- 20
2019-09-03 17:00:00 29.2 11 Norte 28 Noroeste 0 -- -- 20
2019-09-03 16:00:00 29 11 Norte 27 Noroeste 0 -- -- 21
2019-09-03 15:00:00 30 9 Sudoeste 23 Sudoeste 0 -- -- 20
2019-09-03 14:00:00 28.3 6 Sudoeste 23 Sudoeste 0 -- -- 26
2019-09-03 13:00:00 26.9 8 Sudoeste 21 Sudoeste 0 -- -- 30
2019-09-03 12:00:00 23.9 6 Sur 14 Sur 0 -- -- 41
2019-09-03 11:00:00 19.2 3 Nordeste 9 Nordeste 0 -- -- 60
2019-09-03 10:00:00 15.5 4 Nordeste 13 Nordeste 0 -- -- 63
2019-09-03 09:00:00 11.8 4 Nordeste 11 Nordeste 0 -- -- 72
2019-09-03 08:00:00 8.8 5 Norte 8 Norte 0 -- -- 85
2019-09-03 07:00:00 9 5 Nordeste 8 Nordeste 0 -- -- 84
2019-09-03 06:00:00 9.5 5 Norte 9 Nordeste 0 -- -- 82
2019-09-03 05:00:00 10.1 6 Nordeste 9 Nordeste 0 -- -- 79
2019-09-03 04:00:00 11.2 6 Nordeste 10 Nordeste 0 -- -- 75
2019-09-03 03:00:00 12 5 Nordeste 12 Nordeste 0 -- -- 73
2019-09-03 02:00:00 12.7 4 Nordeste 12 Nordeste 0 -- -- 70
2019-09-03 01:00:00 14.1 7 Nordeste 16 Norte 0 -- -- 64
2019-09-03 00:00:00 15.3 8 Nordeste 17 Nordeste 0 -- -- 60
2019-09-02 23:00:00 16.6 8 Nordeste 19 Nordeste 0 -- -- 54
2019-09-02 22:00:00 17.8 8 Nordeste 16 Nordeste 0 -- -- 50
2019-09-02 21:00:00 20.5 8 Nordeste 23 Nordeste 0 -- -- 40
2019-09-02 20:00:00 23.3 9 Nordeste 20 Nordeste 0 -- -- 35
2019-09-02 19:00:00 24.5 7 Nordeste 23 Norte 0 -- -- 34
2019-09-02 18:00:00 25.2 8 Nordeste 22 Norte 0 -- -- 33
2019-09-02 17:00:00 25 10 Norte 27 Nordeste 0 -- -- 37
2019-09-02 16:00:00 24.9 8 Nordeste 21 Nordeste 0 -- -- 43
2019-09-02 15:00:00 23.8 6 Nordeste 21 Nordeste 0 -- -- 49
2019-09-02 14:00:00 23.1 9 Nordeste 24 Nordeste 0 -- -- 51
2019-09-02 13:00:00 21.8 8 Nordeste 21 Norte 0 -- -- 56
2019-09-02 12:00:00 19.4 8 Nordeste 22 Norte 0 -- -- 64
2019-09-02 11:00:00 17.4 9 Nordeste 22 Nordeste 0 -- -- 69
2019-09-02 10:00:00 15.2 10 Nordeste 20 Nordeste 0 -- -- 76
2019-09-02 09:00:00 13.5 8 Nordeste 18 Nordeste 0 -- -- 81
2019-09-02 08:00:00 12.6 8 Nordeste 14 Nordeste 0 -- -- 85
2019-09-02 07:00:00 12.7 6 Nordeste 15 Nordeste 0 -- -- 85
2019-09-02 06:00:00 13.2 7 Nordeste 23 Norte 0 -- -- 85
2019-09-02 05:00:00 13.8 7 Nordeste 24 Nordeste 0 -- -- 83
2019-09-02 04:00:00 14.5 10 Nordeste 22 Nordeste 0 -- -- 81
2019-09-02 03:00:00 15.1 8 Nordeste 27 Nordeste 0 -- -- 81
2019-09-02 02:00:00 15.5 9 Nordeste 27 Nordeste 0 -- -- 81
2019-09-02 01:00:00 15.8 8 Nordeste 30 Nordeste 0 -- -- 80
2019-09-02 00:00:00 16.5 9 Nordeste 27 Nordeste 0 -- -- 80
2019-09-01 23:00:00 17 12 Nordeste 26 Nordeste 0 -- -- 80
2019-09-01 22:00:00 18.3 10 Nordeste 20 Nordeste 0.2 -- -- 82
2019-09-01 21:00:00 18.6 9 Nordeste 18 Nordeste 0 -- -- 83
2019-09-01 20:00:00 18.8 3 Nordeste 17 Noroeste 1.4 -- -- 84
2019-09-01 19:00:00 20.6 6 Nordeste 29 Norte 0.2 -- -- 73
2019-09-01 18:00:00 21.9 6 Norte 21 Noroeste 1.4 -- -- 61
2019-09-01 17:00:00 28.1 6 Norte 15 Nordeste 0 -- -- 28
2019-09-01 16:00:00 27.6 5 Nordeste 29 Noroeste 0 -- -- 30
2019-09-01 15:00:00 29.1 10 Oeste 34 Norte 0 -- -- 28
2019-09-01 14:00:00 30 12 Sur 21 Sudoeste 0 -- -- 24
2019-09-01 13:00:00 28.7 6 Sur 18 Sur 0 -- -- 25
2019-09-01 12:00:00 26.8 6 Sudoeste 15 Sudoeste 0 -- -- 31
2019-09-01 11:00:00 23.7 6 Sudoeste 14 Sudoeste 0 -- -- 41
2019-09-01 10:00:00 18 3 Nordeste 7 Nordeste 0 -- -- 62
2019-09-01 09:00:00 14.5 3 Nordeste 9 Norte 0 -- -- 72
2019-09-01 08:00:00 12.4 2 Nordeste 6 Nordeste 0 -- -- 77
2019-09-01 07:00:00 13.2 3 Nordeste 6 Este 0 -- -- 75
2019-09-01 06:00:00 14.3 2 Norte 6 Nordeste 0 -- -- 73
2019-09-01 05:00:00 14.8 3 Norte 9 Norte 0 -- -- 72
2019-09-01 04:00:00 15.2 3 Nordeste 8 Norte 0 -- -- 71
2019-09-01 03:00:00 15.3 3 Nordeste 8 Nordeste 0 -- -- 70
2019-09-01 02:00:00 15.4 3 Nordeste 9 Nordeste 0 -- -- 69
2019-09-01 01:00:00 15.3 3 Nordeste 7 Norte 0 -- -- 68
2019-09-01 00:00:00 15.5 0 Calma 4 Norte 0 -- -- 66
2019-08-31 23:00:00 17 3 Nordeste 6 Norte 0 -- -- 60
2019-08-31 22:00:00 19.5 2 Norte 6 Nordeste 0 -- -- 51
2019-08-31 21:00:00 22.8 0 Calma 3 Sur 0 -- -- 41
2019-08-31 20:00:00 25.4 2 Sudoeste 11 Sudoeste 0 -- -- 36
2019-08-31 19:00:00 27.9 4 Sudoeste 13 Sudoeste 0 -- -- 26
2019-08-31 18:00:00 27.7 6 Sudoeste 22 Oeste 0 -- -- 27
2019-08-31 17:00:00 27.4 9 Oeste 27 Noroeste 0 -- -- 28
2019-08-31 16:00:00 31.2 14 Sudoeste 26 Sudoeste 0 -- -- 20
2019-08-31 15:00:00 31.1 8 Sur 21 Sudoeste 0 -- -- 19
2019-08-31 14:00:00 30.6 6 Sudoeste 18 Sudoeste 0 -- -- 22
2019-08-31 13:00:00 28.9 7 Sudoeste 19 Sur 0 -- -- 25
2019-08-31 12:00:00 26.6 9 Sur 19 Sur 0 -- -- 31
2019-08-31 11:00:00 22.2 5 Sur 12 Sudoeste 0 -- -- 46
2019-08-31 10:00:00 16.9 3 Nordeste 6 Nordeste 0 -- -- 68
2019-08-31 09:00:00 12.5 4 Nordeste 10 Norte 0 -- -- 85
2019-08-31 08:00:00 9.8 2 Norte 8 Nordeste 0 -- -- 90
2019-08-31 07:00:00 10 6 Norte 9 Norte 0 -- -- 89
2019-08-31 06:00:00 10.7 2 Este 10 Norte 0 -- -- 87
2019-08-31 05:00:00 11.1 4 Norte 6 Norte 0 -- -- 86
2019-08-31 04:00:00 11.9 3 Nordeste 8 Nordeste 0 -- -- 85
2019-08-31 03:00:00 12.9 4 Nordeste 11 Norte 0 -- -- 82
2019-08-31 02:00:00 13.9 2 Nordeste 10 Norte 0 -- -- 75
2019-08-31 01:00:00 15.4 2 Nordeste 8 Norte 0 -- -- 70
2019-08-31 00:00:00 17.6 4 Sur 9 Sudoeste 0 -- -- 58
2019-08-30 23:00:00 20.1 5 Norte 22 Sur 0 -- -- 54
2019-08-30 22:00:00 23 13 Sur 27 Sur 0 -- -- 41
2019-08-30 21:00:00 23.5 3 Sudeste 19 Este 0 -- -- 37
2019-08-30 20:00:00 24.3 6 Nordeste 32 Norte 0 -- -- 34
2019-08-30 19:00:00 27.5 4 Oeste 11 Sudoeste 0 -- -- 27
2019-08-30 18:00:00 25.6 2 Noroeste 16 Sur 0 -- -- 34
2019-08-30 17:00:00 25.8 8 Sudoeste 23 Sudoeste 0 -- -- 36
2019-08-30 16:00:00 25.6 5 Norte 36 Nordeste 0 -- -- 35
2019-08-30 15:00:00 31.5 8 Nordeste 36 Norte 0 -- -- 20
2019-08-30 14:00:00 30.9 6 Nordeste 15 Nordeste 0 -- -- 28
2019-08-30 13:00:00 30.5 5 Sudoeste 15 Sudoeste 0 -- -- 24
2019-08-30 12:00:00 28 7 Sur 14 Sudoeste 0 -- -- 32
2019-08-30 11:00:00 23.6 2 Oeste 7 Norte 0 -- -- 48
2019-08-30 10:00:00 19.1 3 Nordeste 8 Nordeste 0 -- -- 60
2019-08-30 09:00:00 14.5 4 Nordeste 9 Norte 0 -- -- 73
2019-08-30 08:00:00 12.1 3 Nordeste 11 Norte 0 -- -- 80
2019-08-30 07:00:00 12.4 4 Nordeste 9 Nordeste 0 -- -- 78
2019-08-30 06:00:00 13 3 Nordeste 6 Nordeste 0 -- -- 76
2019-08-30 05:00:00 14.6 2 Este 8 Norte 0 -- -- 68
2019-08-30 04:00:00 16.5 0 Calma 8 Nordeste 0 -- -- 61
2019-08-30 03:00:00 19.3 5 Nordeste 16 Este 0 -- -- 50
2019-08-30 02:00:00 20.5 6 Nordeste 15 Nordeste 0 -- -- 47
2019-08-30 01:00:00 21.1 10 Norte 22 Norte 0 -- -- 46
2019-08-30 00:00:00 21.1 9 Norte 19 Norte 0 -- -- 48
2019-08-29 23:00:00 21 8 Norte 19 Nordeste 0 -- -- 50
2019-08-29 22:00:00 22.6 9 Nordeste 28 Norte 0 -- -- 46
2019-08-29 21:00:00 24.5 7 Nordeste 17 Nordeste 0 -- -- 36
2019-08-29 20:00:00 28.1 4 Sudoeste 16 Sudoeste 0 -- -- 27
2019-08-29 19:00:00 29.4 10 Sudoeste 25 Sur 0 -- -- 24
2019-08-29 18:00:00 30.6 10 Sur 23 Sur 0 -- -- 23
2019-08-29 17:00:00 30.2 9 Sudoeste 27 Sudoeste 0 -- -- 24
2019-08-29 16:00:00 29.4 8 Sur 24 Sudoeste 0 -- -- 26
2019-08-29 15:00:00 29.6 12 Sudoeste 26 Sudoeste 0 -- -- 25
2019-08-29 14:00:00 29.9 10 Sudoeste 27 Sur 0 -- -- 23
2019-08-29 13:00:00 28.1 6 Sur 20 Sudoeste 0 -- -- 30
2019-08-29 12:00:00 26.5 11 Sur 18 Sudeste 0 -- -- 36
2019-08-29 11:00:00 23.1 5 Sudoeste 13 Sudoeste 0 -- -- 52
2019-08-29 10:00:00 17.4 2 Norte 8 Nordeste 0 -- -- 71
2019-08-29 09:00:00 13.1 3 Norte 7 Norte 0 -- -- 83
2019-08-29 08:00:00 10.9 4 Nordeste 9 Nordeste 0 -- -- 89
2019-08-29 07:00:00 11.1 -- -- -- -- -- -- -- 88
2019-08-29 06:00:00 11.6 3 Nordeste 8 Norte 0 -- -- 88
2019-08-29 05:00:00 12 3 Nordeste 9 Norte 0 -- -- 86
2019-08-29 04:00:00 12.6 5 Norte 10 Norte 0 -- -- 85
2019-08-29 03:00:00 13.2 4 Norte 9 Norte 0 -- -- 83
2019-08-29 02:00:00 13.9 3 Nordeste 8 Norte 0 -- -- 80
2019-08-29 01:00:00 14.6 5 Norte 10 Nordeste 0 -- -- 78
2019-08-29 00:00:00 16.2 3 Nordeste 8 Nordeste 0 -- -- 71
2019-08-28 23:00:00 18.1 4 Nordeste 6 Nordeste 0 -- -- 65
2019-08-28 22:00:00 21 2 Oeste 6 Sudoeste 0 -- -- 51
2019-08-28 21:00:00 24.3 2 Oeste 12 Sudoeste 0 -- -- 40
2019-08-28 20:00:00 26.9 3 Noroeste 16 Sudoeste 0 -- -- 31
2019-08-28 19:00:00 27.8 5 Sudoeste 11 Sudoeste 0 -- -- 28
2019-08-28 18:00:00 26.5 3 Norte 7 Norte 0 -- -- 31
2019-08-28 17:00:00 26.7 3 Este 12 Nordeste 0 -- -- 29
2019-08-28 16:00:00 27.2 5 Nordeste 24 Sudoeste 0 -- -- 29
2019-08-28 15:00:00 28.6 9 Sur 22 Sur 0 -- -- 28
2019-08-28 14:00:00 27.7 10 Sur 22 Sur 0 -- -- 29
2019-08-28 13:00:00 25.9 4 Noroeste 20 Sudoeste 0 -- -- 31
2019-08-28 12:00:00 24.1 5 Oeste 17 Sudoeste 0 -- -- 39
2019-08-28 11:00:00 20.8 8 Sur 12 Sudoeste 0 -- -- 53
2019-08-28 10:00:00 15.9 3 Nordeste 4 Norte 0 -- -- 76
2019-08-28 09:00:00 12.3 4 Nordeste 9 Nordeste 0 -- -- 91
2019-08-28 08:00:00 9.7 4 Nordeste 7 Norte 0 -- -- 94
2019-08-28 07:00:00 9.9 3 Nordeste 7 Norte 0 -- -- 93
2019-08-28 06:00:00 10.5 3 Nordeste 7 Norte 0 -- -- 93
2019-08-28 05:00:00 11.1 5 Norte 9 Nordeste 0 -- -- 92
2019-08-28 04:00:00 11.1 4 Nordeste 6 Nordeste 0 -- -- 92
2019-08-28 03:00:00 11.8 3 Nordeste 6 Este 0 -- -- 90
2019-08-28 02:00:00 12.5 4 Nordeste 10 Norte 0 -- -- 88
2019-08-28 01:00:00 13.1 3 Nordeste 8 Nordeste 0 -- -- 86
2019-08-28 00:00:00 14.3 3 Nordeste 10 Norte 0 -- -- 82
2019-08-27 23:00:00 15.6 2 Norte 10 Norte 0 -- -- 77
2019-08-27 22:00:00 16.8 7 Norte 12 Norte 0 -- -- 70
2019-08-27 21:00:00 19 4 Nordeste 10 Nordeste 0 -- -- 61
2019-08-27 20:00:00 22.3 4 Sudoeste 10 Oeste 0 -- -- 43
2019-08-27 19:00:00 22.9 3 Oeste 10 Oeste 0 -- -- 39
2019-08-27 18:00:00 23.3 3 Oeste 13 Noroeste 0 -- -- 41
2019-08-27 17:00:00 24.7 5 Oeste 19 Sudoeste 0 -- -- 36
2019-08-27 16:00:00 24.5 5 Noroeste 16 Noroeste 0 -- -- 36
2019-08-27 15:00:00 24 5 Este 13 Este 0 -- -- 41
2019-08-27 14:00:00 22.1 2 Sudeste 10 Nordeste 0 -- -- 50
2019-08-27 13:00:00 21.4 3 Sudeste 13 Norte 0 -- -- 50
2019-08-27 12:00:00 20 2 Este 10 Sur 0 -- -- 57
2019-08-27 11:00:00 17 3 Sur 9 Sur 0 -- -- 73
2019-08-27 10:00:00 15.1 4 Nordeste 8 Norte 0 -- -- 85
2019-08-27 09:00:00 13.7 0 Calma 4 Nordeste 0 -- -- 91
2019-08-27 08:00:00 13 3 Norte 7 Sudoeste 0 -- -- 92
2019-08-27 07:00:00 13 5 Sudoeste 10 Nordeste 0 -- -- 91
2019-08-27 06:00:00 13.3 5 Nordeste 14 Nordeste 0 -- -- 88
2019-08-27 05:00:00 12.5 5 Nordeste 13 Nordeste 0 -- -- 92
2019-08-27 04:00:00 12.9 0 Calma 9 Norte 0 -- -- 92
2019-08-27 03:00:00 13.3 5 Nordeste 11 Nordeste 0 -- -- 92
2019-08-27 02:00:00 13.5 7 Nordeste 14 Nordeste 0.4 -- -- 91
2019-08-27 01:00:00 13.6 2 Sur 10 Nordeste 1.6 -- -- 92
2019-08-27 00:00:00 13.6 3 Este 27 Sudoeste 1.4 -- -- 89
2019-08-26 23:00:00 14.9 14 Sudoeste 40 Sudoeste 1.4 -- -- 79
2019-08-26 22:00:00 18.4 3 Nordeste 12 Norte 0 -- -- 70
2019-08-26 21:00:00 18.1 4 Nordeste 13 Norte 0 -- -- 69
2019-08-26 20:00:00 19.1 3 Sudeste 32 Sudoeste 0.8 -- -- 60
2019-08-26 19:00:00 24.7 8 Sudoeste 22 Sudoeste 0.2 -- -- 43
2019-08-26 18:00:00 25.3 8 Sudoeste 21 Sur 0 -- -- 35
2019-08-26 17:00:00 26.1 14 Sur 33 Sudoeste 0 -- -- 30
2019-08-26 16:00:00 26.8 14 Sur 31 Sudoeste 0 -- -- 33
2019-08-26 15:00:00 27.2 14 Sur 32 Sudeste 0 -- -- 29
2019-08-26 14:00:00 27.3 9 Sur 29 Sudeste 0 -- -- 27
2019-08-26 13:00:00 25.8 13 Sur 36 Sudeste 0 -- -- 28
2019-08-26 12:00:00 24.2 7 Sur 24 Sudoeste 0 -- -- 31
2019-08-26 11:00:00 22.3 4 Sudeste 12 Sudeste 0 -- -- 36
2019-08-26 10:00:00 20.4 3 Oeste 12 Nordeste 0 -- -- 41
2019-08-26 09:00:00 15.1 5 Norte 12 Norte 0 -- -- 56
2019-08-26 08:00:00 11.9 5 Nordeste 10 Norte 0 -- -- 63
2019-08-26 07:00:00 11.5 4 Nordeste 10 Nordeste 0 -- -- 63
2019-08-26 06:00:00 12.6 5 Norte 10 Nordeste 0 -- -- 60
2019-08-26 05:00:00 13.4 5 Nordeste 9 Norte 0 -- -- 56
2019-08-26 04:00:00 14.3 3 Nordeste 6 Nordeste 0 -- -- 55
2019-08-26 03:00:00 14.9 0 Calma 12 Norte 0 -- -- 55
2019-08-26 02:00:00 17 4 Nordeste 10 Sur 0 -- -- 48
2019-08-26 01:00:00 19.7 3 Sur 8 Norte 0 -- -- 40
2019-08-26 00:00:00 19.1 2 Norte 10 Sudoeste 0 -- -- 41
2019-08-25 23:00:00 22.4 6 Sur 16 Sur 0 -- -- 32
2019-08-25 22:00:00 23.4 0 Calma 6 Sur 0 -- -- 28
2019-08-25 21:00:00 26.5 4 Nordeste 17 Sur 0 -- -- 23
2019-08-25 20:00:00 28.8 12 Sur 23 Sudeste 0 -- -- 17
2019-08-25 19:00:00 29.8 5 Sur 24 Este 0 -- -- 19
2019-08-25 18:00:00 30.7 4 Este 25 Sudeste 0 -- -- 18
2019-08-25 17:00:00 30.3 3 Este 22 Este 0 -- -- 19
2019-08-25 16:00:00 29.9 7 Sudoeste 24 Este 0 -- -- 18
2019-08-25 15:00:00 31.2 6 Este 24 Sur 0 -- -- 18
2019-08-25 14:00:00 30.2 8 Sudoeste 24 Sur 0 -- -- 22
2019-08-25 13:00:00 29.2 8 Sur 29 Sur 0 -- -- 22
2019-08-25 12:00:00 26.6 14 Sur 25 Sur 0 -- -- 27
2019-08-25 11:00:00 23.7 12 Sur 26 Sudoeste 0 -- -- 34
2019-08-25 10:00:00 20.3 10 Sur 20 Sudoeste 0 -- -- 45
2019-08-25 09:00:00 13 2 Este 7 Nordeste 0 -- -- 72
2019-08-25 08:00:00 10.1 5 Nordeste 8 Norte 0 -- -- 76
2019-08-25 07:00:00 10.5 3 Nordeste 7 Norte 0 -- -- 74
2019-08-25 06:00:00 11.4 2 Sudeste 6 Norte 0 -- -- 70
2019-08-25 05:00:00 12.4 0 Calma 7 Nordeste 0 -- -- 67
2019-08-25 04:00:00 13.5 3 Nordeste 8 Norte 0 -- -- 62
2019-08-25 03:00:00 14.9 4 Nordeste 9 Norte 0 -- -- 56
2019-08-25 02:00:00 16.2 -- -- -- -- -- -- -- 51
2019-08-25 01:00:00 18 4 Nordeste -- -- -- 906.7 -- 45
2019-08-25 00:00:00 19.7 4 Este 15 Nordeste 0 -- -- 40
2019-08-24 23:00:00 21.3 6 Norte 23 Norte 0 -- -- 33
2019-08-24 22:00:00 20.5 4 Norte 9 Norte 0 -- -- 34
2019-08-24 21:00:00 24.1 3 Nordeste 7 Norte 0 -- -- 27
2019-08-24 20:00:00 28.3 2 Noroeste 12 Noroeste 0 -- -- 22
2019-08-24 19:00:00 30.3 6 Norte 24 Noroeste 0 -- -- 16
2019-08-24 18:00:00 30.5 4 Este 15 Norte 0 -- -- 15
2019-08-24 17:00:00 30.9 6 Sudoeste 18 Sudoeste 0 -- -- 13
2019-08-24 16:00:00 31 7 Sudoeste 21 Oeste 0 -- -- 13
2019-08-24 15:00:00 30.9 10 Sur 20 Sudoeste 0 -- -- 14
2019-08-24 14:00:00 30.1 9 Sur 21 Sur 0 907.6 -- 20
2019-08-24 13:00:00 28.3 7 Sudoeste 21 Sudoeste 0 -- -- 25
2019-08-24 12:00:00 25.8 11 Sudoeste 21 Sur 0 -- -- 31
2019-08-24 11:00:00 22.8 9 Sudoeste 17 Sudoeste 0 -- -- 39
2019-08-24 10:00:00 16.9 3 Sudeste 6 Nordeste 0 -- -- 56
2019-08-24 09:00:00 11.7 4 Nordeste 8 Norte 0 -- -- 70
2019-08-24 08:00:00 8.3 4 Nordeste 8 Nordeste 0 -- -- 79
2019-08-24 07:00:00 8.6 4 Norte 7 Norte 0 -- -- 77
2019-08-24 06:00:00 9.3 4 Nordeste 7 Norte 0 -- -- 75
2019-08-24 05:00:00 10.2 4 Norte 6 Nordeste 0 -- -- 73
2019-08-24 04:00:00 11.2 3 Nordeste 6 Norte 0 -- -- 70
2019-08-24 03:00:00 12.5 2 Norte 8 Norte 0 -- -- 65
2019-08-24 02:00:00 13.7 4 Nordeste 9 Norte 0 -- -- 60
2019-08-24 01:00:00 15 2 Nordeste 10 Norte 0 -- -- 53
2019-08-24 00:00:00 16.4 5 Nordeste 13 Norte 0 -- -- 48
2019-08-23 23:00:00 17.8 4 Nordeste 8 Nordeste 0 -- -- 43
2019-08-23 22:00:00 20 3 Sudeste 6 Noroeste 0 -- -- 37
2019-08-23 21:00:00 23.9 2 Sudoeste 10 Norte 0 -- -- 29
2019-08-23 20:00:00 27.5 0 Calma 8 Noroeste 0 -- -- 20
2019-08-23 19:00:00 29.1 0 Calma 15 Sudoeste 0 -- -- 20
2019-08-23 18:00:00 29.7 5 Sudoeste 18 Sudoeste 0 -- -- 18
2019-08-23 17:00:00 29.6 7 Sudoeste 19 Sudoeste 0 -- -- 18
2019-08-23 16:00:00 29.8 8 Sudoeste 23 Sur 0 -- -- 19
2019-08-23 15:00:00 28.7 5 Este 18 Sudoeste 0 -- -- 22
2019-08-23 14:00:00 28 4 Este 23 Sur 0 -- -- 25
2019-08-23 13:00:00 27.3 10 Sur 26 Sudoeste 0 -- -- 29
2019-08-23 12:00:00 25 11 Sudoeste 26 Sur 0 -- -- 35
2019-08-23 11:00:00 22.6 8 Sudoeste 24 Sudoeste 0 -- -- 45
2019-08-23 10:00:00 16.7 3 Sur 7 Nordeste 0 -- -- 61
2019-08-23 09:00:00 11.5 4 Nordeste 6 Nordeste 0 -- -- 74
2019-08-23 08:00:00 8.2 4 Norte 6 Nordeste 0 -- -- 80
2019-08-23 07:00:00 8.5 3 Norte 9 Norte 0 -- -- 78
2019-08-23 06:00:00 9.3 3 Norte 7 Nordeste 0 -- -- 74
2019-08-23 05:00:00 10.3 3 Nordeste 10 Norte 0 -- -- 70
2019-08-23 04:00:00 11.5 7 Norte 10 Nordeste 0 -- -- 64
2019-08-23 03:00:00 12.7 6 Nordeste 10 Nordeste 0 -- -- 59
2019-08-23 02:00:00 13.2 8 Nordeste 12 Norte 0 -- -- 58
2019-08-23 01:00:00 13.4 4 Nordeste 12 Nordeste 0 -- -- 54
2019-08-23 00:00:00 14.9 5 Norte 10 Norte 0 -- -- 46
2019-08-22 23:00:00 17 5 Nordeste 8 Este 0 -- -- 41
2019-08-22 22:00:00 19.1 3 Nordeste 10 Norte 0 -- -- 37
2019-08-22 21:00:00 23 6 Nordeste 16 Nordeste 0 -- -- 27
2019-08-22 20:00:00 25.8 6 Nordeste 18 Nordeste 0 -- -- 13
2019-08-22 19:00:00 27.1 8 Nordeste 18 Nordeste 0 -- -- 13
2019-08-22 18:00:00 27.5 8 Nordeste 24 Norte 0 -- -- 14
2019-08-22 17:00:00 28 8 Nordeste 23 Norte 0 -- -- 19
2019-08-22 16:00:00 28.2 7 Este 21 Norte 0 -- -- 15
2019-08-22 15:00:00 28.1 6 Este 22 Nordeste 0 -- -- 17
2019-08-22 14:00:00 27.3 6 Nordeste 21 Este 0 -- -- 18
2019-08-22 13:00:00 26.1 4 Sudeste 15 Norte 0 -- -- 27
2019-08-22 12:00:00 23.2 5 Nordeste 14 Norte 0 -- -- 36
2019-08-22 11:00:00 20.4 4 Este 12 Norte 0 -- -- 48
2019-08-22 10:00:00 14.7 0 Calma 6 Nordeste 0 -- -- 76
2019-08-22 09:00:00 11.1 3 Nordeste 5 Nordeste 0 -- -- 91
2019-08-22 08:00:00 8.3 3 Nordeste 6 Nordeste 0 -- -- 95
2019-08-22 07:00:00 8.5 2 Nordeste 6 Norte 0 -- -- 92
2019-08-22 06:00:00 9.2 3 Nordeste 7 Norte 0 -- -- 93
2019-08-22 05:00:00 9.9 0 Calma 8 Nordeste 0 -- -- 91
2019-08-22 04:00:00 10.7 5 Nordeste 10 Nordeste 0 -- -- 91
2019-08-22 03:00:00 11.2 5 Norte 9 Norte 0 -- -- 91
2019-08-22 02:00:00 11.3 4 Nordeste 8 Nordeste 0 -- -- 88
2019-08-22 01:00:00 12.4 3 Norte 4 Norte 0 -- -- 87
2019-08-22 00:00:00 13.7 0 Calma 5 Norte 0 -- -- 81
2019-08-21 23:00:00 15.4 2 Nordeste 9 Norte 0 -- -- 77
2019-08-21 22:00:00 17.1 5 Norte 12 Nordeste 0 -- -- 69
2019-08-21 21:00:00 18.8 5 Norte 22 Este 0 -- -- 63
2019-08-21 20:00:00 19.6 5 Este 37 Este 0 -- -- 57
2019-08-21 19:00:00 21.6 6 Sudoeste 12 Noroeste 0.2 -- -- 65
2019-08-21 18:00:00 24.9 5 Oeste 19 Oeste 0.2 -- -- 55
2019-08-21 17:00:00 25.8 7 Sudoeste 20 Sur 0 -- -- 44
2019-08-21 16:00:00 26 12 Sur 22 Sudoeste 0 -- -- 45
2019-08-21 15:00:00 24.4 5 Sudoeste 22 Sudoeste 0 -- -- 52
2019-08-21 14:00:00 23.9 9 Sudoeste 23 Sudoeste 0 -- -- 54
2019-08-21 13:00:00 22.6 7 Sudoeste 23 Sudoeste 0 -- -- 59
2019-08-21 12:00:00 21.4 9 Sur 19 Sur 0 -- -- 64
2019-08-21 11:00:00 18.9 2 Norte 9 Nordeste 0 -- -- 71
2019-08-21 10:00:00 17.1 4 Norte 10 Nordeste 0 -- -- 75
2019-08-21 09:00:00 15.9 5 Nordeste 10 Norte 0 -- -- 79
2019-08-21 08:00:00 14.8 4 Nordeste 11 Nordeste 0 -- -- 83
2019-08-21 07:00:00 14.4 5 Nordeste 12 Norte 0 -- -- 83
2019-08-21 06:00:00 14.3 6 Nordeste 12 Norte 0 -- -- 83
2019-08-21 05:00:00 15 6 Norte 11 Norte 0 -- -- 80
2019-08-21 04:00:00 14.1 6 Nordeste 12 Nordeste 0 -- -- 82
2019-08-21 03:00:00 13.7 6 Nordeste 13 Nordeste 0 -- -- 82
2019-08-21 02:00:00 14 5 Nordeste 14 Nordeste 0 -- -- 80
2019-08-21 01:00:00 14.8 6 Nordeste 18 Nordeste 0 -- -- 78
2019-08-21 00:00:00 15.4 6 Nordeste 15 Nordeste 0 -- -- 75